sensor_id;sensor_type;location;lat;lon;timestamp;pressure;altitude;pressure_sealevel;temperature;humidity
35023;BME280;21214;44.912;8.204;2023-01-29T00:01:23;100439.69;;;-0.45;100.00
35023;BME280;21214;44.912;8.204;2023-01-29T00:03:49;100441.66;;;-0.52;100.00
35023;BME280;21214;44.912;8.204;2023-01-29T00:06:14;100446.53;;;-0.69;100.00
35023;BME280;21214;44.912;8.204;2023-01-29T00:08:40;100439.72;;;-0.98;100.00
35023;BME280;21214;44.912;8.204;2023-01-29T00:11:06;100438.97;;;-1.01;100.00
35023;BME280;21214;44.912;8.204;2023-01-29T00:13:32;100440.72;;;-1.02;100.00
35023;BME280;21214;44.912;8.204;2023-01-29T00:16:00;100444.06;;;-0.98;100.00
35023;BME280;21214;44.912;8.204;2023-01-29T00:18:26;100435.19;;;-0.91;100.00
35023;BME280;21214;44.912;8.204;2023-01-29T00:20:51;100440.38;;;-0.91;100.00
35023;BME280;21214;44.912;8.204;2023-01-29T00:23:17;100430.41;;;-1.03;100.00
35023;BME280;21214;44.912;8.204;2023-01-29T00:25:42;100437.66;;;-1.14;100.00
35023;BME280;21214;44.912;8.204;2023-01-29T00:28:08;100435.88;;;-1.12;100.00
35023;BME280;21214;44.912;8.204;2023-01-29T00:30:34;100432.19;;;-1.05;100.00
35023;BME280;21214;44.912;8.204;2023-01-29T00:33:00;100436.19;;;-0.95;100.00
35023;BME280;21214;44.912;8.204;2023-01-29T00:35:26;100441.97;;;-0.87;100.00
35023;BME280;21214;44.912;8.204;2023-01-29T00:37:51;100440.06;;;-0.82;100.00
35023;BME280;21214;44.912;8.204;2023-01-29T00:40:16;100443.56;;;-0.83;100.00
35023;BME280;21214;44.912;8.204;2023-01-29T00:42:45;100445.34;;;-0.85;100.00
35023;BME280;21214;44.912;8.204;2023-01-29T00:45:30;100441.88;;;-0.84;100.00
35023;BME280;21214;44.912;8.204;2023-01-29T00:47:55;100445.25;;;-0.82;100.00
35023;BME280;21214;44.912;8.204;2023-01-29T00:50:21;100445.25;;;-0.82;100.00
35023;BME280;21214;44.912;8.204;2023-01-29T00:52:46;100457.31;;;-0.81;100.00
35023;BME280;21214;44.912;8.204;2023-01-29T00:55:14;100455.53;;;-0.79;100.00
35023;BME280;21214;44.912;8.204;2023-01-29T00:57:39;100452.97;;;-0.80;100.00
35023;BME280;21214;44.912;8.204;2023-01-29T01:00:06;100447.13;;;-0.87;100.00
35023;BME280;21214;44.912;8.204;2023-01-29T01:02:32;100456.59;;;-1.12;100.00
35023;BME280;21214;44.912;8.204;2023-01-29T01:05:16;100463.56;;;-1.14;100.00
35023;BME280;21214;44.912;8.204;2023-01-29T01:07:43;100463.44;;;-1.11;100.00
35023;BME280;21214;44.912;8.204;2023-01-29T01:10:56;100465.31;;;-1.15;100.00
35023;BME280;21214;44.912;8.204;2023-01-29T01:12:59;100469.66;;;-1.45;100.00
35023;BME280;21214;44.912;8.204;2023-01-29T01:15:25;100470.72;;;-1.81;100.00
35023;BME280;21214;44.912;8.204;2023-01-29T01:17:55;100471.00;;;-1.90;100.00
35023;BME280;21214;44.912;8.204;2023-01-29T01:20:21;100475.44;;;-1.95;100.00
35023;BME280;21214;44.912;8.204;2023-01-29T01:22:47;100469.00;;;-1.82;100.00
35023;BME280;21214;44.912;8.204;2023-01-29T01:25:14;100467.00;;;-1.71;100.00
35023;BME280;21214;44.912;8.204;2023-01-29T01:27:39;100467.59;;;-1.63;100.00
35023;BME280;21214;44.912;8.204;2023-01-29T01:30:06;100465.69;;;-1.56;100.00
35023;BME280;21214;44.912;8.204;2023-01-29T01:32:32;100468.25;;;-1.55;100.00
35023;BME280;21214;44.912;8.204;2023-01-29T01:34:57;100470.72;;;-1.52;100.00
35023;BME280;21214;44.912;8.204;2023-01-29T01:37:23;100476.63;;;-1.47;100.00
35023;BME280;21214;44.912;8.204;2023-01-29T01:39:48;100464.41;;;-1.42;100.00
35023;BME280;21214;44.912;8.204;2023-01-29T01:42:14;100462.78;;;-1.46;100.00
35023;BME280;21214;44.912;8.204;2023-01-29T01:44:53;100467.97;;;-1.46;100.00
35023;BME280;21214;44.912;8.204;2023-01-29T01:47:31;100471.53;;;-1.50;100.00
35023;BME280;21214;44.912;8.204;2023-01-29T01:50:00;100483.13;;;-1.63;100.00
35023;BME280;21214;44.912;8.204;2023-01-29T01:52:28;100485.81;;;-1.66;100.00
35023;BME280;21214;44.912;8.204;2023-01-29T01:54:55;100486.72;;;-1.67;100.00
35023;BME280;21214;44.912;8.204;2023-01-29T01:57:21;100478.00;;;-1.65;100.00
35023;BME280;21214;44.912;8.204;2023-01-29T01:59:51;100480.56;;;-1.63;100.00
35023;BME280;21214;44.912;8.204;2023-01-29T02:02:17;100479.63;;;-1.60;100.00
35023;BME280;21214;44.912;8.204;2023-01-29T02:05:02;100487.25;;;-1.56;100.00
35023;BME280;21214;44.912;8.204;2023-01-29T02:07:46;100490.56;;;-1.51;100.00
35023;BME280;21214;44.912;8.204;2023-01-29T02:10:34;100485.38;;;-1.51;100.00
35023;BME280;21214;44.912;8.204;2023-01-29T02:13:02;100502.13;;;-1.64;100.00
35023;BME280;21214;44.912;8.204;2023-01-29T02:15:28;100499.19;;;-1.81;100.00
35023;BME280;21214;44.912;8.204;2023-01-29T02:17:53;100500.06;;;-1.82;100.00
35023;BME280;21214;44.912;8.204;2023-01-29T02:23:07;100504.00;;;-1.69;100.00
35023;BME280;21214;44.912;8.204;2023-01-29T02:25:56;100505.72;;;-1.68;100.00
35023;BME280;21214;44.912;8.204;2023-01-29T02:28:25;100509.22;;;-1.71;100.00
35023;BME280;21214;44.912;8.204;2023-01-29T02:45:52;100509.47;;;-1.78;100.00
35023;BME280;21214;44.912;8.204;2023-01-29T02:48:21;100506.03;;;-2.11;100.00
35023;BME280;21214;44.912;8.204;2023-01-29T02:51:03;100505.09;;;-2.09;100.00
35023;BME280;21214;44.912;8.204;2023-01-29T02:53:52;100504.09;;;-2.03;100.00
35023;BME280;21214;44.912;8.204;2023-01-29T02:56:23;100514.31;;;-1.98;100.00
35023;BME280;21214;44.912;8.204;2023-01-29T02:58:53;100516.19;;;-2.03;100.00
35023;BME280;21214;44.912;8.204;2023-01-29T03:01:49;100521.66;;;-2.16;100.00
35023;BME280;21214;44.912;8.204;2023-01-29T03:04:28;100518.19;;;-2.15;100.00
35023;BME280;21214;44.912;8.204;2023-01-29T03:07:17;100520.69;;;-2.12;100.00
35023;BME280;21214;44.912;8.204;2023-01-29T03:10:14;100524.91;;;-2.08;100.00
35023;BME280;21214;44.912;8.204;2023-01-29T03:12:43;100526.47;;;-2.00;100.00
35023;BME280;21214;44.912;8.204;2023-01-29T03:15:15;100528.38;;;-2.09;100.00
35023;BME280;21214;44.912;8.204;2023-01-29T03:18:10;100529.63;;;-2.23;100.00
35023;BME280;21214;44.912;8.204;2023-01-29T03:20:40;100540.34;;;-2.38;100.00
35023;BME280;21214;44.912;8.204;2023-01-29T03:23:15;100546.66;;;-2.50;100.00
35023;BME280;21214;44.912;8.204;2023-01-29T03:25:41;100548.72;;;-2.64;100.00
35023;BME280;21214;44.912;8.204;2023-01-29T03:28:29;100546.97;;;-2.62;100.00
35023;BME280;21214;44.912;8.204;2023-01-29T03:31:14;100545.41;;;-2.69;100.00
35023;BME280;21214;44.912;8.204;2023-01-29T03:34:20;100550.41;;;-2.62;100.00
35023;BME280;21214;44.912;8.204;2023-01-29T03:39:20;100549.38;;;-2.55;100.00
35023;BME280;21214;44.912;8.204;2023-01-29T03:44:21;100545.53;;;-2.40;100.00
35023;BME280;21214;44.912;8.204;2023-01-29T03:46:54;100547.06;;;-2.31;100.00
35023;BME280;21214;44.912;8.204;2023-01-29T03:52:00;100541.06;;;-2.32;100.00
35023;BME280;21214;44.912;8.204;2023-01-29T03:55:09;100539.19;;;-2.27;100.00
35023;BME280;21214;44.912;8.204;2023-01-29T04:05:31;100545.34;;;-2.31;100.00
35023;BME280;21214;44.912;8.204;2023-01-29T04:08:13;100547.06;;;-2.31;100.00
35023;BME280;21214;44.912;8.204;2023-01-29T04:10:41;100537.94;;;-2.46;100.00
35023;BME280;21214;44.912;8.204;2023-01-29T04:13:10;100539.63;;;-2.43;100.00
35023;BME280;21214;44.912;8.204;2023-01-29T04:15:40;100544.09;;;-2.50;100.00
35023;BME280;21214;44.912;8.204;2023-01-29T04:18:07;100541.50;;;-2.50;100.00
35023;BME280;21214;44.912;8.204;2023-01-29T04:21:00;100543.97;;;-2.45;100.00
35023;BME280;21214;44.912;8.204;2023-01-29T04:23:25;100539.78;;;-2.51;100.00
35023;BME280;21214;44.912;8.204;2023-01-29T04:25:57;100550.97;;;-2.49;100.00
35023;BME280;21214;44.912;8.204;2023-01-29T04:28:41;100550.16;;;-2.53;100.00
35023;BME280;21214;44.912;8.204;2023-01-29T04:31:11;100551.91;;;-2.53;100.00
35023;BME280;21214;44.912;8.204;2023-01-29T04:33:49;100555.56;;;-2.62;100.00
35023;BME280;21214;44.912;8.204;2023-01-29T04:43:43;100553.44;;;-2.81;100.00
35023;BME280;21214;44.912;8.204;2023-01-29T04:46:16;100547.34;;;-2.79;100.00
35023;BME280;21214;44.912;8.204;2023-01-29T04:51:35;100551.66;;;-2.79;100.00
35023;BME280;21214;44.912;8.204;2023-01-29T04:54:08;100553.44;;;-2.81;100.00
35023;BME280;21214;44.912;8.204;2023-01-29T04:59:22;100554.03;;;-2.70;100.00
35023;BME280;21214;44.912;8.204;2023-01-29T05:01:50;100547.03;;;-2.65;100.00
35023;BME280;21214;44.912;8.204;2023-01-29T05:04:17;100557.38;;;-2.65;100.00
35023;BME280;21214;44.912;8.204;2023-01-29T05:06:44;100556.59;;;-2.70;100.00
35023;BME280;21214;44.912;8.204;2023-01-29T05:09:12;100551.41;;;-2.69;100.00
35023;BME280;21214;44.912;8.204;2023-01-29T05:11:38;100555.72;;;-2.69;100.00
35023;BME280;21214;44.912;8.204;2023-01-29T05:14:05;100557.47;;;-2.70;100.00
35023;BME280;21214;44.912;8.204;2023-01-29T05:16:41;100560.75;;;-2.63;100.00
35023;BME280;21214;44.912;8.204;2023-01-29T05:19:08;100567.72;;;-2.65;100.00
35023;BME280;21214;44.912;8.204;2023-01-29T05:21:34;100566.00;;;-2.66;100.00
35023;BME280;21214;44.912;8.204;2023-01-29T05:24:09;100565.88;;;-2.60;100.00
35023;BME280;21214;44.912;8.204;2023-01-29T05:26:35;100565.88;;;-2.60;100.00
35023;BME280;21214;44.912;8.204;2023-01-29T05:29:19;100570.94;;;-2.57;100.00
35023;BME280;21214;44.912;8.204;2023-01-29T05:31:45;100574.28;;;-2.52;100.00
35023;BME280;21214;44.912;8.204;2023-01-29T05:34:10;100569.94;;;-2.52;100.00
35023;BME280;21214;44.912;8.204;2023-01-29T05:36:36;100579.38;;;-2.49;100.00
35023;BME280;21214;44.912;8.204;2023-01-29T05:39:01;100579.28;;;-2.46;100.00
35023;BME280;21214;44.912;8.204;2023-01-29T05:41:27;100577.50;;;-2.42;100.00
35023;BME280;21214;44.912;8.204;2023-01-29T05:43:52;100580.94;;;-2.42;100.00
35023;BME280;21214;44.912;8.204;2023-01-29T05:46:17;100578.34;;;-2.42;100.00
35023;BME280;21214;44.912;8.204;2023-01-29T05:48:43;100589.50;;;-2.40;100.00
35023;BME280;21214;44.912;8.204;2023-01-29T05:51:09;100590.38;;;-2.41;100.00
35023;BME280;21214;44.912;8.204;2023-01-29T05:53:34;100594.75;;;-2.43;100.00
35023;BME280;21214;44.912;8.204;2023-01-29T05:56:00;100589.84;;;-2.54;100.00
35023;BME280;21214;44.912;8.204;2023-01-29T05:58:26;100595.03;;;-2.55;100.00
35023;BME280;21214;44.912;8.204;2023-01-29T06:00:52;100598.41;;;-2.53;100.00
35023;BME280;21214;44.912;8.204;2023-01-29T06:03:17;100593.19;;;-2.50;100.00
35023;BME280;21214;44.912;8.204;2023-01-29T06:05:43;100595.75;;;-2.49;100.00
35023;BME280;21214;44.912;8.204;2023-01-29T06:08:08;100605.13;;;-2.46;100.00
35023;BME280;21214;44.912;8.204;2023-01-29T06:10:34;100612.00;;;-2.45;100.00
35023;BME280;21214;44.912;8.204;2023-01-29T06:12:59;100606.00;;;-2.45;100.00
35023;BME280;21214;44.912;8.204;2023-01-29T06:15:25;100607.00;;;-2.51;100.00
35023;BME280;21214;44.912;8.204;2023-01-29T06:17:53;100603.56;;;-2.53;100.00
35023;BME280;21214;44.912;8.204;2023-01-29T06:20:19;100613.09;;;-2.54;100.00
35023;BME280;21214;44.912;8.204;2023-01-29T06:22:44;100615.69;;;-2.55;100.00
35023;BME280;21214;44.912;8.204;2023-01-29T06:25:10;100621.03;;;-2.63;100.00
35023;BME280;21214;44.912;8.204;2023-01-29T06:27:35;100619.38;;;-2.65;100.00
35023;BME280;21214;44.912;8.204;2023-01-29T06:30:02;100633.06;;;-2.60;100.00
35023;BME280;21214;44.912;8.204;2023-01-29T06:32:27;100624.56;;;-2.65;100.00
35023;BME280;21214;44.912;8.204;2023-01-29T06:34:53;100634.91;;;-2.65;100.00
35023;BME280;21214;44.912;8.204;2023-01-29T06:37:18;100636.69;;;-2.70;100.00
35023;BME280;21214;44.912;8.204;2023-01-29T06:39:43;100631.75;;;-2.79;100.00
35023;BME280;21214;44.912;8.204;2023-01-29T06:42:09;100633.50;;;-2.81;100.00
35023;BME280;21214;44.912;8.204;2023-01-29T06:44:35;100641.22;;;-2.80;100.00
35023;BME280;21214;44.912;8.204;2023-01-29T06:47:00;100638.78;;;-2.88;100.00
35023;BME280;21214;44.912;8.204;2023-01-29T06:49:26;100639.63;;;-2.85;100.00
35023;BME280;21214;44.912;8.204;2023-01-29T06:51:51;100650.09;;;-2.93;100.00
35023;BME280;21214;44.912;8.204;2023-01-29T06:54:16;100651.09;;;-2.99;100.00
35023;BME280;21214;44.912;8.204;2023-01-29T06:56:43;100655.50;;;-3.04;100.00
35023;BME280;21214;44.912;8.204;2023-01-29T06:59:09;100651.28;;;-3.08;100.00
35023;BME280;21214;44.912;8.204;2023-01-29T07:01:37;100655.66;;;-3.11;100.00
35023;BME280;21214;44.912;8.204;2023-01-29T07:04:05;100670.28;;;-3.12;100.00
35023;BME280;21214;44.912;8.204;2023-01-29T07:06:30;100669.41;;;-3.11;100.00
35023;BME280;21214;44.912;8.204;2023-01-29T07:08:56;100666.78;;;-3.08;100.00
35023;BME280;21214;44.912;8.204;2023-01-29T07:11:21;100677.09;;;-3.08;100.00
35023;BME280;21214;44.912;8.204;2023-01-29T07:13:46;100681.31;;;-3.04;100.00
35023;BME280;21214;44.912;8.204;2023-01-29T07:16:12;100682.06;;;-2.99;100.00
35023;BME280;21214;44.912;8.204;2023-01-29T07:18:37;100685.50;;;-2.97;100.00
35023;BME280;21214;44.912;8.204;2023-01-29T07:21:04;100686.22;;;-2.90;100.00
35023;BME280;21214;44.912;8.204;2023-01-29T07:23:30;100686.09;;;-2.84;100.00
35023;BME280;21214;44.912;8.204;2023-01-29T07:25:58;100685.13;;;-2.78;100.00
35023;BME280;21214;44.912;8.204;2023-01-29T07:28:24;100685.91;;;-2.76;100.00
35023;BME280;21214;44.912;8.204;2023-01-29T07:30:49;100694.38;;;-2.70;100.00
35023;BME280;21214;44.912;8.204;2023-01-29T07:33:19;100697.03;;;-2.71;100.00
35023;BME280;21214;44.912;8.204;2023-01-29T07:35:44;100698.56;;;-2.64;100.00
35023;BME280;21214;44.912;8.204;2023-01-29T07:38:10;100706.25;;;-2.60;100.00
35023;BME280;21214;44.912;8.204;2023-01-29T07:40:35;100706.13;;;-2.54;100.00
35023;BME280;21214;44.912;8.204;2023-01-29T07:43:03;100706.06;;;-2.52;100.00
35023;BME280;21214;44.912;8.204;2023-01-29T07:45:33;100707.78;;;-2.51;100.00
35023;BME280;21214;44.912;8.204;2023-01-29T07:47:59;100704.44;;;-2.56;100.00
35023;BME280;21214;44.912;8.204;2023-01-29T07:50:25;100719.94;;;-2.55;100.00
35023;BME280;21214;44.912;8.204;2023-01-29T07:52:53;100714.66;;;-2.50;100.00
35023;BME280;21214;44.912;8.204;2023-01-29T07:55:19;100709.38;;;-2.45;100.00
35023;BME280;21214;44.912;8.204;2023-01-29T07:57:45;100719.59;;;-2.41;100.00
35023;BME280;21214;44.912;8.204;2023-01-29T08:00:11;100713.50;;;-2.37;100.00
35023;BME280;21214;44.912;8.204;2023-01-29T08:02:40;100715.09;;;-2.30;100.00
35023;BME280;21214;44.912;8.204;2023-01-29T08:05:06;100713.25;;;-2.25;100.00
35023;BME280;21214;44.912;8.204;2023-01-29T08:07:31;100708.06;;;-2.25;100.00
35023;BME280;21214;44.912;8.204;2023-01-29T08:09:56;100716.56;;;-2.20;100.00
35023;BME280;21214;44.912;8.204;2023-01-29T08:12:22;100720.25;;;-2.30;100.00
35023;BME280;21214;44.912;8.204;2023-01-29T08:14:47;100732.34;;;-2.32;100.00
35023;BME280;21214;44.912;8.204;2023-01-29T08:17:14;100735.66;;;-2.25;100.00
35023;BME280;21214;44.912;8.204;2023-01-29T08:19:39;100738.03;;;-2.16;100.00
35023;BME280;21214;44.912;8.204;2023-01-29T08:22:05;100740.44;;;-2.09;100.00
35023;BME280;21214;44.912;8.204;2023-01-29T08:24:30;100752.53;;;-2.11;100.00
35023;BME280;21214;44.912;8.204;2023-01-29T08:26:56;100760.13;;;-2.01;100.00
35023;BME280;21214;44.912;8.204;2023-01-29T08:29:21;100762.56;;;-1.95;100.00
35023;BME280;21214;44.912;8.204;2023-01-29T08:31:47;100752.06;;;-1.89;100.00
35023;BME280;21214;44.912;8.204;2023-01-29T08:34:12;100764.75;;;-1.79;100.00
35023;BME280;21214;44.912;8.204;2023-01-29T08:36:38;100762.81;;;-1.71;100.00
35023;BME280;21214;44.912;8.204;2023-01-29T08:39:03;100765.22;;;-1.61;100.00
35023;BME280;21214;44.912;8.204;2023-01-29T08:41:28;100768.41;;;-1.52;100.00
35023;BME280;21214;44.912;8.204;2023-01-29T08:43:54;100765.66;;;-1.46;100.00
35023;BME280;21214;44.912;8.204;2023-01-29T08:46:19;100768.03;;;-1.37;100.00
35023;BME280;21214;44.912;8.204;2023-01-29T08:48:45;100769.59;;;-1.30;100.00
35023;BME280;21214;44.912;8.204;2023-01-29T08:51:10;100766.00;;;-1.24;100.00
35023;BME280;21214;44.912;8.204;2023-01-29T08:53:37;100767.59;;;-1.18;100.00
35023;BME280;21214;44.912;8.204;2023-01-29T08:56:02;100757.84;;;-1.10;100.00
35023;BME280;21214;44.912;8.204;2023-01-29T08:58:28;100768.88;;;-1.02;100.00
35023;BME280;21214;44.912;8.204;2023-01-29T09:00:53;100771.19;;;-0.93;100.00
35023;BME280;21214;44.912;8.204;2023-01-29T09:03:19;100778.91;;;-0.90;100.00
35023;BME280;21214;44.912;8.204;2023-01-29T09:05:44;100783.84;;;-0.81;100.00
35023;BME280;21214;44.912;8.204;2023-01-29T09:08:11;100792.16;;;-0.70;100.00
35023;BME280;21214;44.912;8.204;2023-01-29T09:10:36;100793.69;;;-0.63;100.00
35023;BME280;21214;44.912;8.204;2023-01-29T09:13:03;100803.09;;;-0.59;100.00
35023;BME280;21214;44.912;8.204;2023-01-29T09:15:28;100808.03;;;-0.50;100.00
35023;BME280;21214;44.912;8.204;2023-01-29T09:17:54;100803.38;;;-0.38;100.00
35023;BME280;21214;44.912;8.204;2023-01-29T09:20:19;100799.63;;;-0.28;100.00
35023;BME280;21214;44.912;8.204;2023-01-29T09:22:45;100803.69;;;-0.18;100.00
35023;BME280;21214;44.912;8.204;2023-01-29T09:25:10;100811.16;;;-0.09;100.00
35023;BME280;21214;44.912;8.204;2023-01-29T09:27:36;100804.03;;;-0.01;100.00
35023;BME280;21214;44.912;8.204;2023-01-29T09:30:02;100807.28;;;0.06;100.00
35023;BME280;21214;44.912;8.204;2023-01-29T09:32:28;100804.41;;;0.15;100.00
35023;BME280;21214;44.912;8.204;2023-01-29T09:34:56;100801.69;;;0.18;100.00
35023;BME280;21214;44.912;8.204;2023-01-29T09:37:22;100796.41;;;0.21;100.00
35023;BME280;21214;44.912;8.204;2023-01-29T09:39:48;100808.28;;;0.29;100.00
35023;BME280;21214;44.912;8.204;2023-01-29T09:47:09;100787.00;;;0.45;100.00
35023;BME280;21214;44.912;8.204;2023-01-29T09:49:37;100788.53;;;0.52;100.00
35023;BME280;21214;44.912;8.204;2023-01-29T09:52:06;100791.69;;;0.60;100.00
35023;BME280;21214;44.912;8.204;2023-01-29T09:57:09;100797.31;;;0.74;100.00
35023;BME280;21214;44.912;8.204;2023-01-29T09:59:39;100803.19;;;0.79;100.00
35023;BME280;21214;44.912;8.204;2023-01-29T10:02:08;100799.50;;;0.86;100.00
35023;BME280;21214;44.912;8.204;2023-01-29T10:04:47;100795.88;;;0.90;100.00
35023;BME280;21214;44.912;8.204;2023-01-29T10:09:58;100796.31;;;1.03;100.00
35023;BME280;21214;44.912;8.204;2023-01-29T10:23:04;100785.47;;;1.40;100.00
35023;BME280;21214;44.912;8.204;2023-01-29T10:25:32;100785.25;;;1.46;100.00
35023;BME280;21214;44.912;8.204;2023-01-29T10:28:01;100782.34;;;1.53;100.00
35023;BME280;21214;44.912;8.204;2023-01-29T10:32:52;100776.66;;;1.67;100.00
35023;BME280;21214;44.912;8.204;2023-01-29T10:35:22;100773.78;;;1.75;100.00
35023;BME280;21214;44.912;8.204;2023-01-29T10:37:51;100770.91;;;1.82;100.00
35023;BME280;21214;44.912;8.204;2023-01-29T10:40:21;100762.78;;;1.90;100.00
35023;BME280;21214;44.912;8.204;2023-01-29T10:42:57;100764.28;;;1.95;100.00
35023;BME280;21214;44.912;8.204;2023-01-29T10:48:00;100753.53;;;2.04;100.00
35023;BME280;21214;44.912;8.204;2023-01-29T10:50:38;100747.19;;;2.12;100.00
35023;BME280;21214;44.912;8.204;2023-01-29T10:55:52;100740.50;;;2.26;100.00
35023;BME280;21214;44.912;8.204;2023-01-29T10:58:33;100745.41;;;2.34;100.00
35023;BME280;21214;44.912;8.204;2023-01-29T11:01:01;100742.56;;;2.40;100.00
35023;BME280;21214;44.912;8.204;2023-01-29T11:03:28;100741.41;;;2.47;100.00
35023;BME280;21214;44.912;8.204;2023-01-29T11:05:55;100740.22;;;2.54;100.00
35023;BME280;21214;44.912;8.204;2023-01-29T11:08:25;100725.28;;;2.59;100.00
35023;BME280;21214;44.912;8.204;2023-01-29T11:13:32;100727.22;;;2.74;100.00
35023;BME280;21214;44.912;8.204;2023-01-29T11:16:00;100715.63;;;2.81;100.00
35023;BME280;21214;44.912;8.204;2023-01-29T11:18:25;100711.00;;;2.88;100.00
35023;BME280;21214;44.912;8.204;2023-01-29T11:21:02;100704.53;;;2.97;100.00
35023;BME280;21214;44.912;8.204;2023-01-29T11:23:29;100698.06;;;3.05;100.00
35023;BME280;21214;44.912;8.204;2023-01-29T11:25:56;100689.03;;;3.12;100.00
35023;BME280;21214;44.912;8.204;2023-01-29T11:31:16;100685.69;;;3.29;100.00
35023;BME280;21214;44.912;8.204;2023-01-29T11:33:42;100680.22;;;3.35;100.00
35023;BME280;21214;44.912;8.204;2023-01-29T11:36:41;100676.38;;;3.42;100.00
35023;BME280;21214;44.912;8.204;2023-01-29T11:39:07;100663.84;;;3.50;100.00
35023;BME280;21214;44.912;8.204;2023-01-29T11:42:09;100665.25;;;3.57;100.00
35023;BME280;21214;44.912;8.204;2023-01-29T11:46:53;100647.88;;;3.75;100.00
35023;BME280;21214;44.912;8.204;2023-01-29T11:49:37;100645.81;;;3.82;100.00
35023;BME280;21214;44.912;8.204;2023-01-29T11:52:04;100641.06;;;3.90;100.00
35023;BME280;21214;44.912;8.204;2023-01-29T11:54:31;100631.88;;;4.00;100.00
35023;BME280;21214;44.912;8.204;2023-01-29T11:56:58;100624.41;;;4.09;100.00
35023;BME280;21214;44.912;8.204;2023-01-29T12:04:38;100600.75;;;4.47;100.00
35023;BME280;21214;44.912;8.204;2023-01-29T12:07:09;100595.88;;;4.57;100.00
35023;BME280;21214;44.912;8.204;2023-01-29T12:09:35;100591.19;;;4.63;100.00
35023;BME280;21214;44.912;8.204;2023-01-29T12:12:16;100589.84;;;4.72;100.00
35023;BME280;21214;44.912;8.204;2023-01-29T12:14:42;100579.84;;;4.80;100.00
35023;BME280;21214;44.912;8.204;2023-01-29T12:17:15;100574.19;;;4.87;100.00
35023;BME280;21214;44.912;8.204;2023-01-29T12:19:48;100576.31;;;4.97;100.00
35023;BME280;21214;44.912;8.204;2023-01-29T12:22:22;100576.75;;;5.05;100.00
35023;BME280;21214;44.912;8.204;2023-01-29T12:24:55;100570.16;;;5.13;100.00
35023;BME280;21214;44.912;8.204;2023-01-29T12:27:33;100567.13;;;5.21;100.00
35023;BME280;21214;44.912;8.204;2023-01-29T12:30:11;100566.72;;;5.28;100.00
35023;BME280;21214;44.912;8.204;2023-01-29T12:32:46;100558.53;;;5.34;100.00
35023;BME280;21214;44.912;8.204;2023-01-29T12:40:26;100551.16;;;5.57;95.48
35023;BME280;21214;44.912;8.204;2023-01-29T12:42:54;100548.84;;;5.66;97.35
35023;BME280;21214;44.912;8.204;2023-01-29T12:45:22;100551.03;;;5.74;97.41
35023;BME280;21214;44.912;8.204;2023-01-29T12:47:56;100554.06;;;5.82;96.84
35023;BME280;21214;44.912;8.204;2023-01-29T12:50:32;100540.47;;;5.91;96.84
35023;BME280;21214;44.912;8.204;2023-01-29T12:55:35;100530.03;;;6.05;93.77
35023;BME280;21214;44.912;8.204;2023-01-29T12:58:21;100533.00;;;6.13;94.81
35023;BME280;21214;44.912;8.204;2023-01-29T13:00:49;100527.41;;;6.20;92.19
35023;BME280;21214;44.912;8.204;2023-01-29T13:03:21;100523.84;;;6.21;91.80
35023;BME280;21214;44.912;8.204;2023-01-29T13:08:34;100511.50;;;6.37;93.23
35023;BME280;21214;44.912;8.204;2023-01-29T13:11:01;100509.09;;;6.48;92.09
35023;BME280;21214;44.912;8.204;2023-01-29T13:16:00;100489.78;;;6.63;90.71
35023;BME280;21214;44.912;8.204;2023-01-29T13:18:39;100488.28;;;6.73;90.25
35023;BME280;21214;44.912;8.204;2023-01-29T13:21:05;100493.06;;;6.81;90.35
35023;BME280;21214;44.912;8.204;2023-01-29T13:23:41;100495.94;;;6.90;90.92
35023;BME280;21214;44.912;8.204;2023-01-29T13:26:07;100490.22;;;6.98;88.99
35023;BME280;21214;44.912;8.204;2023-01-29T13:28:32;100478.88;;;6.97;88.51
35023;BME280;21214;44.912;8.204;2023-01-29T13:31:08;100475.94;;;7.02;89.20
35023;BME280;21214;44.912;8.204;2023-01-29T13:33:35;100469.47;;;7.08;87.66
35023;BME280;21214;44.912;8.204;2023-01-29T13:36:01;100464.41;;;7.05;86.07
35023;BME280;21214;44.912;8.204;2023-01-29T13:38:27;100458.25;;;7.06;87.24
35023;BME280;21214;44.912;8.204;2023-01-29T13:40:55;100461.41;;;7.11;88.06
35023;BME280;21214;44.912;8.204;2023-01-29T13:43:23;100457.53;;;7.16;88.63
35023;BME280;21214;44.912;8.204;2023-01-29T13:45:50;100451.81;;;7.24;88.81
35023;BME280;21214;44.912;8.204;2023-01-29T13:48:26;100447.94;;;7.29;88.01
35023;BME280;21214;44.912;8.204;2023-01-29T13:50:56;100448.25;;;7.37;87.11
35023;BME280;21214;44.912;8.204;2023-01-29T13:53:42;100439.75;;;7.34;86.78
35023;BME280;21214;44.912;8.204;2023-01-29T13:56:29;100448.56;;;7.33;86.35
35023;BME280;21214;44.912;8.204;2023-01-29T13:58:55;100442.78;;;7.28;86.54
35023;BME280;21214;44.912;8.204;2023-01-29T14:04:23;100431.25;;;7.04;87.37
35023;BME280;21214;44.912;8.204;2023-01-29T14:06:53;100434.47;;;6.94;87.88
35023;BME280;21214;44.912;8.204;2023-01-29T14:11:56;100423.06;;;6.81;88.18
35023;BME280;21214;44.912;8.204;2023-01-29T14:17:06;100416.81;;;6.70;89.87
35023;BME280;21214;44.912;8.204;2023-01-29T14:19:31;100421.53;;;6.65;89.62
35023;BME280;21214;44.912;8.204;2023-01-29T14:21:58;100421.69;;;6.62;89.01
35023;BME280;21214;44.912;8.204;2023-01-29T14:24:23;100420.13;;;6.59;89.41
35023;BME280;21214;44.912;8.204;2023-01-29T14:26:55;100425.38;;;6.59;88.46
35023;BME280;21214;44.912;8.204;2023-01-29T14:29:23;100421.16;;;6.56;88.12
35023;BME280;21214;44.912;8.204;2023-01-29T14:34:43;100421.81;;;6.46;87.37
35023;BME280;21214;44.912;8.204;2023-01-29T14:37:17;100429.88;;;6.43;87.54
35023;BME280;21214;44.912;8.204;2023-01-29T14:39:44;100426.69;;;6.38;88.46
35023;BME280;21214;44.912;8.204;2023-01-29T14:45:22;100432.50;;;6.29;87.34
35023;BME280;21214;44.912;8.204;2023-01-29T14:52:48;100434.94;;;6.18;88.75
35023;BME280;21214;44.912;8.204;2023-01-29T14:55:34;100422.78;;;6.16;88.83
35023;BME280;21214;44.912;8.204;2023-01-29T14:58:01;100423.81;;;6.14;88.65